Time;durP1;ratioP1;P1;durP2;ratioP2;P2;SDS_P1;SDS_P2;PMS_P1;PMS_P2;Temp;Humidity;BMP_temperature;BMP_pressure;BME280_temperature;BME280_humidity;BME280_pressure;Samples;Min_cycle;Max_cycle;Signal;HPM_P1;HPM_P2
2023/07/04 00:00:43;;;;;;;11.25;1.75;;;12.50;1.00;;;;;;5073141;28;20417;-69
2023/07/04 00:03:09;;;;;;;9.38;1.60;;;12.50;1.00;;;;;;5073090;28;20549;-69
2023/07/04 00:05:34;;;;;;;9.65;1.88;;;12.50;1.00;;;;;;5072692;28;20569;-69
2023/07/04 00:08:00;;;;;;;7.87;1.50;;;12.50;1.00;;;;;;5072680;28;20438;-69
2023/07/04 00:10:26;;;;;;;6.72;1.52;;;12.40;1.00;;;;;;5057761;28;20453;-69
2023/07/04 00:12:52;;;;;;;8.48;1.67;;;12.40;1.00;;;;;;5067689;28;20819;-69
2023/07/04 00:15:17;;;;;;;7.67;1.80;;;12.40;1.00;;;;;;5072521;28;20409;-69
2023/07/04 00:17:43;;;;;;;9.20;1.55;;;12.40;1.00;;;;;;5045755;28;20434;-69
2023/07/04 00:20:10;;;;;;;14.07;2.40;;;12.40;1.00;;;;;;5072066;28;20406;-69
2023/07/04 00:22:40;;;;;;;8.85;1.75;;;12.40;1.00;;;;;;5071584;28;20497;-69
2023/07/04 00:25:06;;;;;;;7.72;1.75;;;12.40;1.00;;;;;;5072241;28;20492;-69
2023/07/04 00:27:32;;;;;;;6.17;1.50;;;12.40;1.00;;;;;;5072106;28;20939;-69
2023/07/04 00:29:58;;;;;;;8.20;1.38;;;12.40;1.00;;;;;;5090436;28;20466;-69
2023/07/04 00:32:24;;;;;;;10.88;1.88;;;12.40;1.00;;;;;;5070800;28;20432;-69
2023/07/04 00:34:50;;;;;;;7.78;2.00;;;12.40;1.00;;;;;;5071369;28;20421;-69
2023/07/04 00:37:21;;;;;;;11.90;1.90;;;12.40;1.00;;;;;;5071848;28;20421;-69
2023/07/04 00:39:49;;;;;;;8.13;1.70;;;12.40;1.00;;;;;;5055818;28;20449;-69
2023/07/04 00:42:14;;;;;;;8.73;1.90;;;12.30;1.00;;;;;;5071432;28;20401;-69
2023/07/04 00:44:47;;;;;;;7.30;1.58;;;12.40;1.00;;;;;;5089457;28;20395;-69
2023/07/04 00:47:21;;;;;;;6.18;1.70;;;12.30;1.00;;;;;;5070110;28;20475;-69
2023/07/04 00:49:57;;;;;;;9.38;2.05;;;12.40;1.00;;;;;;5070934;28;20413;-69
2023/07/04 00:52:27;;;;;;;7.60;1.90;;;12.30;1.00;;;;;;5053596;28;20434;-69
2023/07/04 00:55:00;;;;;;;10.00;2.00;;;12.30;1.00;;;;;;5071215;28;20425;-69
2023/07/04 00:57:32;;;;;;;8.52;1.58;;;12.30;1.00;;;;;;5048812;28;20423;-69
2023/07/04 01:00:08;;;;;;;10.50;2.00;;;12.30;1.00;;;;;;5066225;28;20903;-69
2023/07/04 01:02:35;;;;;;;10.98;1.80;;;12.30;1.00;;;;;;5071991;28;20414;-69
2023/07/04 01:05:03;;;;;;;9.63;1.80;;;12.30;1.00;;;;;;5054858;28;20410;-69
2023/07/04 01:07:58;;;;;;;6.63;1.30;;;12.30;1.00;;;;;;5071550;28;20426;-69
2023/07/04 01:10:40;;;;;;;6.90;1.50;;;12.30;1.00;;;;;;5067927;28;20494;-69
2023/07/04 01:13:35;;;;;;;7.70;1.50;;;12.30;1.00;;;;;;5070344;28;20950;-69
2023/07/04 01:16:09;;;;;;;8.85;1.50;;;12.20;1.00;;;;;;5070419;28;20510;-69
2023/07/04 01:18:37;;;;;;;11.35;1.95;;;12.20;1.00;;;;;;5067287;28;20440;-69
2023/07/04 01:21:05;;;;;;;7.45;1.40;;;12.20;1.00;;;;;;5070415;28;20518;-69
2023/07/04 01:23:56;;;;;;;8.55;1.55;;;12.20;1.00;;;;;;5070932;28;20418;-69
2023/07/04 01:26:38;;;;;;;10.02;1.75;;;12.20;1.00;;;;;;5088936;28;20764;-70
2023/07/04 01:29:15;;;;;;;7.20;1.65;;;12.20;1.00;;;;;;5062499;28;20427;-69
2023/07/04 01:31:43;;;;;;;7.80;1.77;;;12.20;1.00;;;;;;5070635;28;20489;-69
2023/07/04 01:34:10;;;;;;;8.50;1.53;;;12.20;1.00;;;;;;5068344;28;20426;-69
2023/07/04 01:36:38;;;;;;;7.47;1.77;;;12.20;1.00;;;;;;5070730;28;20959;-69
2023/07/04 01:39:09;;;;;;;8.30;1.80;;;12.20;1.00;;;;;;5071016;28;20410;-69
2023/07/04 01:41:35;;;;;;;6.68;1.50;;;12.20;1.00;;;;;;5080549;28;20466;-69
2023/07/04 01:44:04;;;;;;;9.73;1.98;;;12.30;1.00;;;;;;5067637;28;20492;-69
2023/07/04 01:46:30;;;;;;;6.85;1.75;;;12.30;1.00;;;;;;5088664;28;20410;-69
2023/07/04 01:48:56;;;;;;;9.00;1.63;;;12.30;1.50;;;;;;5042647;28;20402;-69
2023/07/04 01:51:25;;;;;;;9.03;1.90;;;12.40;3.50;;;;;;5070902;28;20493;-69
2023/07/04 01:53:51;;;;;;;9.48;1.90;;;12.40;5.40;;;;;;5065620;28;20446;-69
2023/07/04 01:56:16;;;;;;;7.03;1.85;;;12.30;4.90;;;;;;5088416;28;20410;-69
2023/07/04 01:58:42;;;;;;;9.17;1.83;;;12.30;4.50;;;;;;5070016;28;20765;-69
2023/07/04 02:01:08;;;;;;;8.55;1.85;;;12.30;4.00;;;;;;5061896;28;20948;-69
2023/07/04 02:03:34;;;;;;;6.87;1.80;;;12.30;4.40;;;;;;5053937;28;20410;-69
2023/07/04 02:06:00;;;;;;;6.35;1.75;;;12.30;4.70;;;;;;5061439;28;20420;-69
2023/07/04 02:08:26;;;;;;;8.25;2.10;;;12.30;4.30;;;;;;5070174;28;20410;-69
2023/07/04 02:10:52;;;;;;;8.30;1.67;;;12.30;3.60;;;;;;5070754;28;20406;-69
2023/07/04 02:13:17;;;;;;;10.68;2.35;;;12.30;3.50;;;;;;5069918;28;20434;-69
2023/07/04 02:15:43;;;;;;;6.67;1.43;;;12.20;3.60;;;;;;5070373;28;20860;-69
2023/07/04 02:18:08;;;;;;;10.13;1.95;;;12.20;3.00;;;;;;5069974;28;20414;-69
2023/07/04 02:20:34;;;;;;;7.70;1.57;;;12.20;3.50;;;;;;5061965;28;20415;-69
2023/07/04 02:22:59;;;;;;;8.00;1.90;;;12.10;2.80;;;;;;5064877;28;20398;-69
2023/07/04 02:25:25;;;;;;;9.32;2.10;;;12.10;3.10;;;;;;5088043;28;20409;-69
2023/07/04 02:27:51;;;;;;;8.60;1.60;;;12.10;4.00;;;;;;5087847;28;20406;-69
2023/07/04 02:30:16;;;;;;;9.23;2.10;;;12.10;4.80;;;;;;5063027;28;20411;-69
2023/07/04 02:32:42;;;;;;;9.90;2.03;;;12.10;5.40;;;;;;5064753;28;20427;-69
2023/07/04 02:35:08;;;;;;;9.13;2.05;;;12.10;5.60;;;;;;5053413;28;20406;-69
2023/07/04 02:37:34;;;;;;;9.88;2.00;;;12.00;4.70;;;;;;5069462;28;20417;-69
2023/07/04 02:39:59;;;;;;;8.33;1.83;;;12.00;5.00;;;;;;5070248;28;20414;-69
2023/07/04 02:42:25;;;;;;;6.43;1.60;;;12.00;7.40;;;;;;5061518;28;20518;-69
2023/07/04 02:44:51;;;;;;;6.97;1.90;;;12.00;6.70;;;;;;5059132;28;20403;-69
2023/07/04 02:47:18;;;;;;;9.98;1.92;;;12.00;6.50;;;;;;5058691;28;20404;-69
2023/07/04 02:49:43;;;;;;;7.22;1.90;;;12.00;8.10;;;;;;5069936;28;20414;-69
2023/07/04 02:52:10;;;;;;;11.13;2.20;;;12.00;9.20;;;;;;5064039;28;20784;-70
2023/07/04 02:54:36;;;;;;;8.70;2.08;;;12.00;8.30;;;;;;5070154;28;20458;-69
2023/07/04 02:57:02;;;;;;;11.10;2.77;;;12.00;7.00;;;;;;5069270;28;20911;-69
2023/07/04 02:59:27;;;;;;;9.05;2.08;;;11.90;7.70;;;;;;5047838;28;20406;-69
2023/07/04 03:01:53;;;;;;;9.43;2.47;;;11.90;8.10;;;;;;5070025;28;20426;-69
2023/07/04 03:04:19;;;;;;;8.27;2.30;;;11.90;9.10;;;;;;5069462;28;20417;-69
2023/07/04 03:06:45;;;;;;;9.98;2.20;;;12.00;8.90;;;;;;5069935;28;20417;-69
2023/07/04 03:09:11;;;;;;;8.27;2.30;;;12.00;8.30;;;;;;5069756;28;20446;-69
2023/07/04 03:11:36;;;;;;;9.30;2.40;;;12.00;8.40;;;;;;5069763;28;20436;-69
2023/07/04 03:14:02;;;;;;;7.20;1.90;;;12.00;9.50;;;;;;5070683;28;20518;-69
2023/07/04 03:16:28;;;;;;;10.73;2.17;;;12.00;9.80;;;;;;5087207;28;20543;-69
2023/07/04 03:18:54;;;;;;;8.03;1.97;;;12.00;9.80;;;;;;5091719;28;20400;-69
2023/07/04 03:21:20;;;;;;;8.15;2.13;;;12.00;11.40;;;;;;5073729;28;20413;-69
2023/07/04 03:23:46;;;;;;;7.15;2.45;;;12.00;12.20;;;;;;5072906;28;20402;-69
2023/07/04 03:26:12;;;;;;;6.87;2.30;;;12.10;13.50;;;;;;5092068;28;20824;-69
2023/07/04 03:28:38;;;;;;;7.45;2.20;;;12.10;14.00;;;;;;5073419;28;20410;-69
2023/07/04 03:31:04;;;;;;;7.65;2.05;;;12.10;13.20;;;;;;5073659;28;20499;-69
2023/07/04 03:33:30;;;;;;;9.18;2.25;;;12.10;13.30;;;;;;5091232;28;20434;-69
2023/07/04 03:35:57;;;;;;;7.43;2.10;;;12.10;13.70;;;;;;5073809;28;20413;-69
2023/07/04 03:38:23;;;;;;;7.47;2.35;;;12.10;14.30;;;;;;5073251;28;20417;-70
2023/07/04 03:40:49;;;;;;;7.85;2.03;;;12.10;14.80;;;;;;5073560;28;20405;-69
2023/07/04 03:43:15;;;;;;;9.37;2.53;;;12.10;14.30;;;;;;5089590;28;20413;-69
2023/07/04 03:45:44;;;;;;;8.05;2.30;;;12.10;13.90;;;;;;5062050;28;20455;-69
2023/07/04 03:48:10;;;;;;;8.18;2.60;;;12.10;14.10;;;;;;5073077;28;20417;-69
2023/07/04 03:50:35;;;;;;;7.75;2.20;;;12.10;14.20;;;;;;5086061;28;20402;-69
2023/07/04 03:53:01;;;;;;;7.27;2.47;;;12.10;15.60;;;;;;5071820;28;20441;-69
2023/07/04 03:55:27;;;;;;;6.57;2.40;;;12.10;17.00;;;;;;5083493;28;20485;-69
2023/07/04 03:57:52;;;;;;;8.97;2.57;;;12.20;18.20;;;;;;5071483;28;21367;-69
2023/07/04 04:00:18;;;;;;;9.45;2.20;;;12.20;19.20;;;;;;5068890;28;20402;-69
2023/07/04 04:02:43;;;;;;;8.37;2.50;;;12.20;20.50;;;;;;5072954;28;20468;-69
2023/07/04 04:05:09;;;;;;;8.40;2.35;;;12.30;22.40;;;;;;5069813;28;20468;-69
2023/07/04 04:07:35;;;;;;;11.03;2.40;;;12.40;24.00;;;;;;5066163;28;20410;-69
2023/07/04 04:10:00;;;;;;;9.25;2.13;;;12.40;24.40;;;;;;5081419;28;20400;-69
2023/07/04 04:12:26;;;;;;;8.13;2.00;;;12.50;24.40;;;;;;5064773;28;20442;-69
2023/07/04 04:14:52;;;;;;;10.18;2.70;;;12.50;25.20;;;;;;5072295;28;20441;-69
2023/07/04 04:17:18;;;;;;;6.10;2.07;;;12.50;26.00;;;;;;5071497;28;20398;-69
2023/07/04 04:19:44;;;;;;;5.00;1.60;;;12.60;25.80;;;;;;5072775;28;20409;-70
2023/07/04 04:22:09;;;;;;;9.30;2.00;;;12.60;25.40;;;;;;5072506;28;20455;-70
2023/07/04 04:24:37;;;;;;;6.50;1.92;;;12.70;25.20;;;;;;5089984;28;20741;-70
2023/07/04 04:27:08;;;;;;;5.30;1.58;;;12.70;25.00;;;;;;5069763;28;20421;-70
2023/07/04 04:29:34;;;;;;;7.30;2.05;;;12.80;25.00;;;;;;5046037;28;20414;-70
2023/07/04 04:32:00;;;;;;;6.82;1.52;;;12.80;24.70;;;;;;5072196;28;20417;-70
2023/07/04 04:34:26;;;;;;;8.57;2.10;;;12.80;24.00;;;;;;5072355;28;20410;-69
2023/07/04 04:36:52;;;;;;;4.20;1.42;;;12.90;24.60;;;;;;5071592;28;21990;-70
2023/07/04 04:39:18;;;;;;;7.27;1.40;;;12.80;23.80;;;;;;5072082;28;20438;-69
2023/07/04 04:41:43;;;;;;;6.55;1.42;;;12.90;24.10;;;;;;5071982;28;20437;-69
2023/07/04 04:44:09;;;;;;;6.05;1.30;;;13.00;23.80;;;;;;5054994;28;20915;-70
2023/07/04 04:46:35;;;;;;;5.27;1.20;;;13.00;24.10;;;;;;5071499;28;20423;-70
2023/07/04 04:49:04;;;;;;;7.90;1.30;;;13.20;24.00;;;;;;5071953;28;20408;-69
2023/07/04 04:51:31;;;;;;;5.03;1.00;;;13.20;22.40;;;;;;5066505;28;20425;-70
2023/07/04 04:53:57;;;;;;;4.28;1.02;;;13.30;20.80;;;;;;5071267;28;20445;-69
2023/07/04 04:56:23;;;;;;;6.25;1.30;;;13.30;19.00;;;;;;5071199;28;20417;-69
2023/07/04 04:58:49;;;;;;;5.37;1.03;;;13.30;15.80;;;;;;5071356;28;20406;-70
2023/07/04 05:01:21;;;;;;;3.40;1.00;;;13.30;13.50;;;;;;5087776;28;20530;-70
2023/07/04 05:03:53;;;;;;;5.45;1.17;;;13.30;10.80;;;;;;5070176;28;20496;-70
2023/07/04 05:06:23;;;;;;;4.25;1.30;;;13.40;8.70;;;;;;5051600;28;21112;-69
2023/07/04 05:08:50;;;;;;;4.97;1.30;;;13.40;9.60;;;;;;5068409;28;20398;-70
2023/07/04 05:11:16;;;;;;;5.50;1.60;;;13.40;10.10;;;;;;5070816;28;20409;-70
2023/07/04 05:13:44;;;;;;;5.63;1.50;;;13.50;11.00;;;;;;5088673;28;20516;-70
2023/07/04 05:16:13;;;;;;;6.05;1.70;;;13.50;11.90;;;;;;5070274;28;20447;-68
2023/07/04 05:18:39;;;;;;;6.13;1.63;;;13.60;10.60;;;;;;5088048;28;20398;-68
2023/07/04 05:21:11;;;;;;;8.90;2.10;;;13.70;10.70;;;;;;5050901;28;20398;-68
2023/07/04 05:23:39;;;;;;;6.20;1.70;;;13.70;11.30;;;;;;5069970;28;20409;-69
2023/07/04 05:26:07;;;;;;;8.27;1.70;;;13.70;10.30;;;;;;5058002;28;20419;-68
2023/07/04 05:28:33;;;;;;;8.60;1.85;;;13.70;10.80;;;;;;5066385;28;20771;-69
2023/07/04 05:31:01;;;;;;;6.30;1.55;;;13.80;12.20;;;;;;5085684;28;20413;-69
2023/07/04 05:33:27;;;;;;;5.55;1.52;;;13.80;12.60;;;;;;5068331;28;20524;-69
2023/07/04 05:36:06;;;;;;;6.77;1.83;;;13.90;13.10;;;;;;5070071;28;20413;-69
2023/07/04 05:38:32;;;;;;;6.63;1.90;;;14.00;11.30;;;;;;5069321;28;20417;-69
2023/07/04 05:40:57;;;;;;;6.22;2.08;;;14.00;13.50;;;;;;5088219;28;20514;-69
2023/07/04 05:43:23;;;;;;;7.13;2.17;;;14.10;13.70;;;;;;5069639;28;20497;-69
2023/07/04 05:45:50;;;;;;;8.90;2.80;;;14.10;12.50;;;;;;5069382;28;20414;-69
2023/07/04 05:48:16;;;;;;;9.40;2.38;;;14.00;12.00;;;;;;5085668;28;20410;-69
2023/07/04 05:51:01;;;;;;;8.77;2.60;;;14.10;16.10;;;;;;5054672;28;20414;-69
2023/07/04 05:53:29;;;;;;;8.63;2.88;;;14.20;18.10;;;;;;5085812;28;21064;-69
2023/07/04 05:56:18;;;;;;;7.13;2.83;;;14.30;18.40;;;;;;5069408;28;20403;-69
2023/07/04 05:58:49;;;;;;;8.40;2.55;;;14.30;16.20;;;;;;5063707;28;20417;-69
2023/07/04 06:01:32;;;;;;;7.80;2.60;;;14.40;15.20;;;;;;5053040;28;20783;-69
2023/07/04 06:03:59;;;;;;;9.20;2.90;;;14.40;14.60;;;;;;5069784;28;20425;-69
2023/07/04 06:06:27;;;;;;;7.05;2.60;;;14.50;16.70;;;;;;5053717;28;20405;-69
2023/07/04 06:08:55;;;;;;;10.53;2.90;;;14.50;15.40;;;;;;5084935;28;20437;-69
2023/07/04 06:11:22;;;;;;;8.23;2.67;;;14.50;15.30;;;;;;5087982;28;20457;-69
2023/07/04 06:13:51;;;;;;;7.10;2.50;;;14.50;15.20;;;;;;5066874;28;20437;-69
2023/07/04 06:16:17;;;;;;;9.18;2.60;;;14.60;13.90;;;;;;5070476;28;21103;-69
2023/07/04 06:18:43;;;;;;;8.45;2.50;;;14.60;15.30;;;;;;5068967;28;20425;-69
2023/07/04 06:21:21;;;;;;;5.30;2.03;;;14.70;14.60;;;;;;5063510;28;20408;-69
2023/07/04 06:23:46;;;;;;;6.55;2.05;;;14.80;16.30;;;;;;5063826;28;20410;-69
2023/07/04 06:26:13;;;;;;;8.98;2.72;;;14.80;10.40;;;;;;5075999;28;20401;-70
2023/07/04 06:28:40;;;;;;;7.05;2.33;;;14.80;11.60;;;;;;5053000;28;20421;-69
2023/07/04 06:31:07;;;;;;;5.10;1.80;;;14.90;9.40;;;;;;5068441;28;20407;-69
2023/07/04 06:33:33;;;;;;;6.47;1.70;;;14.90;7.60;;;;;;5060704;28;20463;-69
2023/07/04 06:35:59;;;;;;;5.10;1.40;;;14.90;1.00;;;;;;5069895;28;20468;-69
2023/07/04 06:38:26;;;;;;;6.90;1.58;;;14.90;1.00;;;;;;5063195;28;20856;-70
2023/07/04 06:40:56;;;;;;;6.75;1.60;;;14.90;1.00;;;;;;5080569;28;20472;-69
2023/07/04 06:43:22;;;;;;;6.50;1.42;;;14.90;1.00;;;;;;5087900;28;20414;-69
2023/07/04 06:45:48;;;;;;;4.20;1.17;;;15.00;1.00;;;;;;5069777;28;20827;-69
2023/07/04 06:48:14;;;;;;;5.25;1.05;;;15.00;1.00;;;;;;5082714;28;20519;-69
2023/07/04 06:50:39;;;;;;;7.57;1.27;;;15.10;1.00;;;;;;5064720;28;20463;-70
2023/07/04 06:53:05;;;;;;;6.20;1.00;;;15.20;1.00;;;;;;5068921;28;20949;-69
2023/07/04 06:55:30;;;;;;;5.60;1.10;;;15.30;1.00;;;;;;5052073;28;20414;-70
2023/07/04 06:57:56;;;;;;;5.77;0.90;;;15.30;1.00;;;;;;5069415;28;20405;-70
2023/07/04 07:00:21;;;;;;;4.40;1.10;;;15.40;1.00;;;;;;5068218;28;20405;-69
2023/07/04 07:02:50;;;;;;;5.57;1.00;;;15.50;1.00;;;;;;5058521;28;20477;-69
2023/07/04 07:05:16;;;;;;;6.00;1.10;;;15.60;1.00;;;;;;5069460;28;20493;-70
2023/07/04 07:07:41;;;;;;;4.50;0.80;;;15.60;1.00;;;;;;5087174;28;21042;-70
2023/07/04 07:10:07;;;;;;;7.80;1.17;;;15.70;1.00;;;;;;5069512;28;20483;-70
2023/07/04 07:12:33;;;;;;;4.50;0.75;;;15.70;1.00;;;;;;5069493;28;20426;-69
2023/07/04 07:14:58;;;;;;;4.80;1.25;;;15.80;1.00;;;;;;5064377;28;20402;-70
2023/07/04 07:17:24;;;;;;;4.77;1.17;;;15.80;1.00;;;;;;5087670;28;20451;-69
2023/07/04 07:19:50;;;;;;;4.83;0.80;;;15.80;1.00;;;;;;5069251;28;21265;-70
2023/07/04 07:22:16;;;;;;;3.97;0.70;;;15.90;1.00;;;;;;5068726;28;20413;-70
2023/07/04 07:24:41;;;;;;;6.22;0.60;;;15.90;1.00;;;;;;5066167;28;20428;-70
2023/07/04 07:27:08;;;;;;;3.87;0.90;;;16.00;1.00;;;;;;5087395;28;20428;-70
2023/07/04 07:29:34;;;;;;;3.83;0.85;;;16.10;1.00;;;;;;5069314;28;20406;-69
2023/07/04 07:32:04;;;;;;;3.57;0.60;;;16.20;1.00;;;;;;5058545;28;20449;-70
2023/07/04 07:34:30;;;;;;;4.97;0.90;;;16.20;1.00;;;;;;5069403;28;20509;-69
2023/07/04 07:36:55;;;;;;;6.35;1.00;;;16.30;1.00;;;;;;5067189;28;20487;-70
2023/07/04 07:39:21;;;;;;;4.20;0.70;;;16.30;1.00;;;;;;5069298;28;20484;-70
2023/07/04 07:41:47;;;;;;;6.38;0.90;;;16.30;1.00;;;;;;5055800;28;20427;-70
2023/07/04 07:44:15;;;;;;;5.30;0.90;;;16.40;1.00;;;;;;5058842;28;20402;-70
2023/07/04 07:46:42;;;;;;;4.43;0.70;;;16.40;99.90;;;;;;5055518;28;20995;-70
2023/07/04 07:49:07;;;;;;;2.72;0.60;;;16.50;99.90;;;;;;5059053;28;20406;-69
2023/07/04 07:51:33;;;;;;;5.33;0.80;;;16.50;99.90;;;;;;5081999;28;20413;-70
2023/07/04 07:54:00;;;;;;;5.93;0.73;;;16.60;99.90;;;;;;5069373;28;20799;-70
2023/07/04 07:56:31;;;;;;;2.35;0.63;;;16.60;99.90;;;;;;5067800;28;20414;-70
2023/07/04 07:58:58;;;;;;;3.55;0.65;;;16.70;99.90;;;;;;5068994;28;20398;-70
2023/07/04 08:01:27;;;;;;;6.45;0.80;;;16.80;99.90;;;;;;5065251;28;20413;-70
2023/07/04 08:03:53;;;;;;;4.45;0.90;;;16.80;99.90;;;;;;5072995;28;20417;-70
2023/07/04 08:06:25;;;;;;;4.63;0.70;;;16.90;99.90;;;;;;5072525;28;20410;-70
2023/07/04 08:08:52;;;;;;;4.85;0.70;;;17.00;99.90;;;;;;5072385;28;20410;-70
2023/07/04 08:11:19;;;;;;;3.85;0.60;;;17.00;99.90;;;;;;5072905;28;20757;-70
2023/07/04 08:13:45;;;;;;;3.65;0.75;;;17.00;99.90;;;;;;5054626;28;20478;-70
2023/07/04 08:16:11;;;;;;;5.47;0.70;;;17.10;99.90;;;;;;5090588;28;20398;-69
2023/07/04 08:18:37;;;;;;;4.28;0.88;;;17.20;99.90;;;;;;5072641;28;20408;-70
2023/07/04 08:21:03;;;;;;;3.00;0.60;;;17.20;99.90;;;;;;5072492;28;20398;-70
2023/07/04 08:23:30;;;;;;;4.57;1.00;;;17.20;99.90;;;;;;5090766;28;20406;-70
2023/07/04 08:25:56;;;;;;;4.18;0.68;;;17.30;99.90;;;;;;5072097;28;20440;-70
2023/07/04 08:28:22;;;;;;;4.70;0.65;;;17.30;19.30;;;;;;5072728;28;20759;-70
2023/07/04 08:30:51;;;;;;;3.30;0.60;;;17.30;1.00;;;;;;5072348;28;20394;-70
2023/07/04 08:33:18;;;;;;;5.55;0.95;;;17.50;1.00;;;;;;5055649;28;20426;-70
2023/07/04 08:36:08;;;;;;;2.97;0.55;;;17.60;1.00;;;;;;5055315;28;20437;-70
2023/07/04 08:38:34;;;;;;;3.80;0.63;;;17.70;99.90;;;;;;5055834;28;20414;-70
2023/07/04 08:41:00;;;;;;;3.35;0.70;;;17.80;99.90;;;;;;5072603;28;21298;-70
2023/07/04 08:43:44;;;;;;;4.32;0.75;;;17.90;99.90;;;;;;5090133;28;20394;-70
2023/07/04 08:46:13;;;;;;;2.90;0.65;;;17.90;1.00;;;;;;5072281;28;20414;-70
2023/07/04 08:48:40;;;;;;;3.58;0.68;;;18.00;99.90;;;;;;5071528;28;20452;-70
2023/07/04 08:51:07;;;;;;;4.28;0.70;;;18.10;99.90;;;;;;5066503;28;20456;-70
2023/07/04 08:53:36;;;;;;;3.25;0.65;;;18.20;43.10;;;;;;5071984;28;20437;-70
2023/07/04 08:56:21;;;;;;;4.05;0.70;;;18.50;1.00;;;;;;5071870;28;20439;-70
2023/07/04 08:59:07;;;;;;;4.23;0.80;;;18.70;99.10;;;;;;5060639;28;20482;-70
2023/07/04 09:02:02;;;;;;;4.97;0.57;;;18.60;1.00;;;;;;5053334;28;20412;-70
2023/07/04 09:04:59;;;;;;;5.35;0.95;;;18.50;99.90;;;;;;5070784;28;20418;-70
2023/07/04 09:07:45;;;;;;;3.22;0.60;;;18.20;99.90;;;;;;5079100;28;20526;-70
2023/07/04 09:10:31;;;;;;;4.30;0.60;;;18.10;99.90;;;;;;5050747;28;20768;-70
2023/07/04 09:12:56;;;;;;;3.03;0.60;;;18.20;99.90;;;;;;5071459;28;20432;-70
2023/07/04 09:15:34;;;;;;;4.17;0.80;;;18.20;99.90;;;;;;5089439;28;20398;-70
2023/07/04 09:18:14;;;;;;;3.60;0.60;;;18.10;1.00;;;;;;5071173;28;20946;-70
2023/07/04 09:20:51;;;;;;;4.35;0.70;;;18.10;1.00;;;;;;5070719;28;20402;-70
2023/07/04 09:23:23;;;;;;;4.60;0.60;;;18.30;1.00;;;;;;5071416;28;20414;-70
2023/07/04 09:25:54;;;;;;;4.30;0.82;;;18.40;90.40;;;;;;5089672;28;20409;-70
2023/07/04 09:28:20;;;;;;;9.10;1.20;;;18.70;7.20;;;;;;5071124;28;20406;-70
2023/07/04 09:30:46;;;;;;;4.43;0.93;;;19.00;1.00;;;;;;5070475;28;20459;-70
2023/07/04 09:33:14;;;;;;;6.82;0.88;;;19.20;99.90;;;;;;5071363;28;20455;-70
2023/07/04 09:35:40;;;;;;;5.82;1.13;;;19.10;99.90;;;;;;5071047;28;20942;-70
2023/07/04 09:38:06;;;;;;;8.23;1.00;;;19.00;99.90;;;;;;5071227;28;20398;-70
2023/07/04 09:40:52;;;;;;;6.18;0.98;;;18.80;99.90;;;;;;5070372;28;20467;-70
2023/07/04 09:43:32;;;;;;;8.15;1.80;;;18.50;1.00;;;;;;5070985;28;20418;-70
2023/07/04 09:46:12;;;;;;;6.18;1.40;;;18.10;1.00;;;;;;5071000;28;20409;-70
2023/07/04 09:48:39;;;;;;;7.70;1.10;;;17.60;1.00;;;;;;5070893;28;20414;-70
2023/07/04 09:51:26;;;;;;;9.90;1.70;;;17.10;1.00;;;;;;5065333;28;20410;-69
2023/07/04 09:54:16;;;;;;;7.45;1.35;;;16.70;98.20;;;;;;5059293;28;20487;-70
2023/07/04 09:56:42;;;;;;;8.23;1.73;;;16.60;99.90;;;;;;5054079;28;20413;-69
2023/07/04 09:59:16;;;;;;;7.15;1.38;;;16.70;1.00;;;;;;5088823;28;20426;-70
2023/07/04 10:01:50;;;;;;;11.15;1.52;;;17.00;1.00;;;;;;5068230;28;20410;-70
2023/07/04 10:04:34;;;;;;;7.55;1.52;;;17.40;1.00;;;;;;5060415;28;20461;-70
2023/07/04 10:07:03;;;;;;;4.88;1.27;;;17.80;1.00;;;;;;5070117;28;20438;-70
2023/07/04 10:09:29;;;;;;;6.38;1.30;;;18.10;1.00;;;;;;5069122;28;20494;-70
2023/07/04 10:12:14;;;;;;;7.03;1.30;;;18.60;1.00;;;;;;5060519;28;20402;-70
2023/07/04 10:14:49;;;;;;;6.28;1.00;;;19.00;99.90;;;;;;5066740;28;20460;-70
2023/07/04 10:17:32;;;;;;;8.18;1.40;;;19.00;99.90;;;;;;5069464;28;20406;-70
2023/07/04 10:20:35;;;;;;;8.60;1.50;;;18.90;99.90;;;;;;5063875;28;20407;-70
2023/07/04 10:23:00;;;;;;;5.47;1.13;;;19.10;1.00;;;;;;5062694;28;20923;-70
2023/07/04 10:25:29;;;;;;;9.93;1.10;;;19.30;99.90;;;;;;5069014;28;20398;-70
2023/07/04 10:28:12;;;;;;;5.70;1.20;;;19.30;1.00;;;;;;5069338;28;20405;-70
2023/07/04 10:30:43;;;;;;;5.97;1.40;;;19.40;1.00;;;;;;5069372;28;20921;-71
2023/07/04 10:33:31;;;;;;;5.90;1.20;;;19.80;99.90;;;;;;5052528;28;20434;-70
2023/07/04 10:35:57;;;;;;;5.00;0.82;;;20.30;95.90;;;;;;5069739;28;20460;-70
2023/07/04 10:38:39;;;;;;;5.20;0.80;;;20.60;76.60;;;;;;5068711;28;20903;-70
2023/07/04 10:41:18;;;;;;;6.25;1.10;;;20.90;99.90;;;;;;5087576;28;20399;-70
2023/07/04 10:43:49;;;;;;;6.07;0.90;;;21.30;99.90;;;;;;5068859;28;20915;-70
2023/07/04 10:46:20;;;;;;;4.70;1.00;;;21.50;1.00;;;;;;5073473;28;20395;-71
2023/07/04 10:48:49;;;;;;;5.50;0.80;;;21.80;99.90;;;;;;5049936;28;20400;-70
2023/07/04 10:51:22;;;;;;;5.22;1.10;;;22.00;99.90;;;;;;5072764;28;20481;-71
2023/07/04 10:53:49;;;;;;;5.23;0.80;;;22.10;99.90;;;;;;5069011;28;20430;-70
2023/07/04 10:56:24;;;;;;;3.83;0.60;;;21.90;99.90;;;;;;5069320;28;20425;-70
2023/07/04 10:58:55;;;;;;;3.15;0.50;;;21.60;99.90;;;;;;5069853;28;20414;-70
2023/07/04 11:01:31;;;;;;;4.15;0.93;;;21.10;99.90;;;;;;5046031;28;20412;-70
2023/07/04 11:04:04;;;;;;;4.95;0.73;;;20.50;99.90;;;;;;5063253;28;20413;-70
2023/07/04 11:06:37;;;;;;;3.75;0.60;;;19.70;99.90;;;;;;5087162;28;20966;-70
2023/07/04 11:09:06;;;;;;;3.58;0.60;;;19.10;1.00;;;;;;5068261;28;20463;-70
2023/07/04 11:11:33;;;;;;;4.25;0.80;;;18.60;5.60;;;;;;5068492;28;20521;-70
2023/07/04 11:14:06;;;;;;;3.78;0.70;;;18.40;99.90;;;;;;5069223;28;20430;-70
2023/07/04 11:16:40;;;;;;;3.00;0.60;;;18.50;99.90;;;;;;5086825;28;20418;-70
2023/07/04 11:19:22;;;;;;;3.30;0.57;;;18.70;1.00;;;;;;5086707;28;20495;-70
2023/07/04 11:22:02;;;;;;;5.00;0.80;;;19.00;99.90;;;;;;5068143;28;20418;-70
2023/07/04 11:24:37;;;;;;;4.70;0.70;;;19.00;99.90;;;;;;5051624;28;20409;-70
2023/07/04 11:27:18;;;;;;;6.47;1.10;;;18.80;99.90;;;;;;5039422;28;20411;-70
2023/07/04 11:30:06;;;;;;;7.28;1.20;;;18.60;99.90;;;;;;5067960;28;20414;-70
2023/07/04 11:32:38;;;;;;;4.90;0.98;;;18.60;99.90;;;;;;5044057;28;20403;-70
2023/07/04 11:35:09;;;;;;;5.07;1.00;;;18.90;1.00;;;;;;5065191;28;20956;-70
2023/07/04 11:37:45;;;;;;;5.13;0.80;;;19.50;99.90;;;;;;5078899;28;20406;-70
2023/07/04 11:40:45;;;;;;;5.25;1.00;;;20.00;97.60;;;;;;5072644;28;20765;-70
2023/07/04 11:43:33;;;;;;;5.15;0.75;;;20.20;1.00;;;;;;5066686;28;20402;-70
2023/07/04 11:46:00;;;;;;;5.50;0.98;;;20.10;99.90;;;;;;5059518;28;20769;-70
2023/07/04 11:48:29;;;;;;;4.80;0.88;;;20.00;99.90;;;;;;5087900;28;20402;-70
2023/07/04 11:51:10;;;;;;;5.45;1.13;;;19.90;99.90;;;;;;5055447;28;20416;-70
2023/07/04 11:53:52;;;;;;;4.00;0.90;;;19.80;99.90;;;;;;5072016;28;20433;-70
2023/07/04 11:56:23;;;;;;;4.18;0.88;;;20.10;99.90;;;;;;5088734;28;20497;-70
2023/07/04 11:59:11;;;;;;;5.43;1.05;;;20.30;99.90;;;;;;5053107;28;20420;-70
2023/07/04 12:01:52;;;;;;;5.88;1.08;;;20.50;99.90;;;;;;5088123;28;20737;-70
2023/07/04 12:04:41;;;;;;;3.65;1.10;;;20.90;99.90;;;;;;5055522;28;20437;-70
2023/07/04 12:07:21;;;;;;;6.13;1.27;;;21.20;99.90;;;;;;5070315;28;20406;-70
2023/07/04 12:09:55;;;;;;;5.43;0.90;;;21.40;99.90;;;;;;5090766;28;20424;-70
2023/07/04 12:12:28;;;;;;;4.63;0.90;;;21.50;99.90;;;;;;5072542;28;20406;-70
2023/07/04 12:15:08;;;;;;;7.10;1.10;;;21.30;99.90;;;;;;5072252;28;20805;-71
2023/07/04 12:17:43;;;;;;;4.93;1.10;;;21.10;99.90;;;;;;5069435;28;20434;-70
2023/07/04 12:20:13;;;;;;;7.10;0.83;;;20.80;99.90;;;;;;5063641;28;20915;-70
2023/07/04 12:22:57;;;;;;;6.78;0.90;;;20.60;99.90;;;;;;5072589;28;20945;-70
2023/07/04 12:25:35;;;;;;;6.32;0.90;;;20.60;99.90;;;;;;5072148;28;20406;-70
2023/07/04 12:28:02;;;;;;;7.10;1.10;;;20.60;99.90;;;;;;5055797;28;20402;-70
2023/07/04 12:30:28;;;;;;;6.68;1.25;;;20.80;99.90;;;;;;5072176;28;20521;-70
2023/07/04 12:32:54;;;;;;;6.60;1.10;;;21.30;99.90;;;;;;5090300;28;20492;-71
2023/07/04 12:35:35;;;;;;;5.37;1.23;;;21.70;99.90;;;;;;5090071;28;20454;-70
2023/07/04 12:38:02;;;;;;;5.65;0.77;;;21.90;99.90;;;;;;5072176;28;20930;-71
2023/07/04 12:40:30;;;;;;;6.40;0.90;;;21.90;99.90;;;;;;5072048;28;20438;-71
2023/07/04 12:43:01;;;;;;;7.38;0.90;;;22.10;99.90;;;;;;5090641;28;20554;-70
2023/07/04 12:45:29;;;;;;;7.22;1.23;;;22.30;99.90;;;;;;5071774;28;20410;-70
2023/07/04 12:47:58;;;;;;;5.05;0.82;;;22.40;99.90;;;;;;5071334;28;20398;-71
2023/07/04 12:50:24;;;;;;;6.45;1.02;;;22.30;99.90;;;;;;5071576;28;20412;-70
2023/07/04 12:52:51;;;;;;;5.70;1.10;;;22.10;99.90;;;;;;5071525;28;20922;-70
2023/07/04 12:55:34;;;;;;;4.78;0.85;;;22.00;99.90;;;;;;5089339;28;20876;-71
2023/07/04 12:58:03;;;;;;;4.53;0.77;;;21.80;99.90;;;;;;5071354;28;20414;-71
2023/07/04 13:00:31;;;;;;;6.73;1.13;;;21.60;99.90;;;;;;5072019;28;20401;-70
2023/07/04 13:03:08;;;;;;;4.07;0.90;;;21.40;99.90;;;;;;5071495;28;20922;-70
2023/07/04 13:05:43;;;;;;;6.45;1.08;;;21.20;99.90;;;;;;5071817;28;20402;-70